createdAt,value
2018-11-05T00:00:46.451Z,91.00
2018-11-05T00:09:38.888Z,89.73
2018-11-05T00:15:18.656Z,90.26
2018-11-05T00:21:04.342Z,91.24
2018-11-05T00:23:36.080Z,91.01
2018-11-05T00:29:35.488Z,91.11
2018-11-05T00:32:28.236Z,91.79
2018-11-05T00:34:58.212Z,91.17
2018-11-05T00:37:29.304Z,90.78
2018-11-05T00:39:59.332Z,91.47
2018-11-05T00:42:29.332Z,90.65
2018-11-05T00:45:25.736Z,89.96
2018-11-05T00:47:55.838Z,89.03
2018-11-05T00:50:25.866Z,89.86
2018-11-05T00:52:55.986Z,89.18
2018-11-05T00:58:45.932Z,89.09
2018-11-05T01:01:40.315Z,89.54
2018-11-05T01:04:11.150Z,89.84
2018-11-05T01:06:42.526Z,90.00
2018-11-05T01:09:12.428Z,91.26
2018-11-05T01:11:42.448Z,90.38
2018-11-05T01:14:26.279Z,91.46
2018-11-05T01:16:56.316Z,90.68
2018-11-05T01:19:26.297Z,90.76
2018-11-05T01:21:56.328Z,90.59
2018-11-05T01:24:26.328Z,90.97
2018-11-05T01:26:56.381Z,91.87
2018-11-05T01:29:26.456Z,90.25
2018-11-05T01:32:06.584Z,89.70
2018-11-05T01:34:36.495Z,89.91
2018-11-05T01:40:37.725Z,90.45
2018-11-05T01:43:07.982Z,90.15
2018-11-05T01:45:37.957Z,91.44
2018-11-05T01:48:08.281Z,91.78
2018-11-05T01:50:38.291Z,90.54
2018-11-05T01:53:08.623Z,91.55
2018-11-05T01:55:38.635Z,91.30
2018-11-05T01:58:09.041Z,90.50
2018-11-05T02:00:39.025Z,90.05
2018-11-05T02:03:32.322Z,89.79
2018-11-05T02:06:02.426Z,90.84
2018-11-05T02:08:32.417Z,91.47
2018-11-05T02:11:02.493Z,91.56
2018-11-05T02:13:32.527Z,92.30
2018-11-05T02:16:02.727Z,92.24
2018-11-05T02:18:32.755Z,92.89
2018-11-05T02:21:02.754Z,92.71
2018-11-05T02:23:32.710Z,92.16
2018-11-05T02:26:03.146Z,91.54
2018-11-05T02:31:32.944Z,91.74
2018-11-05T02:34:03.105Z,89.49
2018-11-05T02:36:33.131Z,88.89
2018-11-05T02:39:03.303Z,88.39
2018-11-05T02:41:34.599Z,89.06
2018-11-05T02:44:06.609Z,88.75
2018-11-05T02:46:36.910Z,90.13
2018-11-05T02:49:07.482Z,91.38
2018-11-05T02:51:37.537Z,92.11
2018-11-05T02:54:07.782Z,92.13
2018-11-05T02:56:45.176Z,92.52
2018-11-05T02:59:15.140Z,91.91
2018-11-05T03:01:45.469Z,92.80
2018-11-05T03:04:19.363Z,93.53
2018-11-05T03:07:07.704Z,92.86
2018-11-05T03:09:38.048Z,91.69
2018-11-05T03:12:08.447Z,92.79
2018-11-05T03:17:48.588Z,89.70
2018-11-05T03:23:18.790Z,89.21
2018-11-05T03:25:49.073Z,90.33
2018-11-05T03:28:19.312Z,92.43
2018-11-05T03:30:49.293Z,93.82
2018-11-05T03:33:19.435Z,92.95
2018-11-05T03:35:54.866Z,92.13
2018-11-05T03:38:24.831Z,93.57
2018-11-05T03:40:54.919Z,94.34
2018-11-05T03:43:25.095Z,95.06
2018-11-05T03:46:13.088Z,95.40
2018-11-05T03:48:56.673Z,94.55
2018-11-05T03:51:50.325Z,91.78
2018-11-05T03:54:20.285Z,90.56
2018-11-05T03:56:50.229Z,91.46
2018-11-05T03:59:20.149Z,93.91
2018-11-05T04:01:52.100Z,94.92
2018-11-05T04:04:22.141Z,93.46
2018-11-05T04:06:52.120Z,92.00
2018-11-05T04:09:22.133Z,93.21
2018-11-05T04:14:54.597Z,94.02
2018-11-05T04:17:36.741Z,93.88
2018-11-05T04:20:09.257Z,92.93
2018-11-05T04:22:41.146Z,93.75
2018-11-05T04:28:11.378Z,91.53
2018-11-05T04:30:41.402Z,92.05
2018-11-05T04:33:35.486Z,92.14
2018-11-05T04:36:06.921Z,92.64
2018-11-05T04:42:07.647Z,91.20
2018-11-05T04:44:44.704Z,90.86
2018-11-05T04:47:16.309Z,92.29
2018-11-05T04:49:46.397Z,91.99
2018-11-05T04:52:16.431Z,91.68
2018-11-05T04:54:46.463Z,91.38
2018-11-05T04:57:16.501Z,93.86
2018-11-05T04:59:46.724Z,93.86
2018-11-05T05:02:16.736Z,93.23
2018-11-05T05:04:46.631Z,93.49
2018-11-05T05:07:16.699Z,92.91
2018-11-05T05:09:47.058Z,92.60
2018-11-05T05:12:17.505Z,93.50
2018-11-05T05:14:47.718Z,94.30
2018-11-05T05:17:31.562Z,94.09
2018-11-05T05:20:02.544Z,94.75
2018-11-05T05:22:32.916Z,94.30
2018-11-05T05:25:28.736Z,94.20
2018-11-05T05:28:28.988Z,93.34
2018-11-05T05:30:59.615Z,92.63
2018-11-05T05:36:30.648Z,91.41
2018-11-05T05:39:09.088Z,91.25
2018-11-05T05:41:39.391Z,91.78
2018-11-05T05:44:09.617Z,92.79
2018-11-05T05:46:39.683Z,92.25
2018-11-05T05:49:09.705Z,92.15
2018-11-05T05:51:56.292Z,92.35
2018-11-05T05:54:26.236Z,91.82
2018-11-05T05:56:57.777Z,91.89
2018-11-05T05:59:27.982Z,91.35
2018-11-05T06:01:58.007Z,92.49
2018-11-05T06:04:28.174Z,93.87
2018-11-05T06:09:58.475Z,93.09
2018-11-05T06:12:28.621Z,93.30
2018-11-05T06:14:58.592Z,92.64
2018-11-05T06:17:54.251Z,92.20
2018-11-05T06:20:34.367Z,91.58
2018-11-05T06:23:04.347Z,90.37
2018-11-05T06:25:35.259Z,90.79
2018-11-05T06:28:05.197Z,91.06
2018-11-05T06:30:47.889Z,90.45
2018-11-05T06:33:17.987Z,89.35
2018-11-05T06:35:48.161Z,89.73
2018-11-05T06:38:18.152Z,92.10
2018-11-05T06:40:48.460Z,94.33
2018-11-05T06:43:18.381Z,93.64
2018-11-05T06:49:38.026Z,91.94
2018-11-05T06:52:08.005Z,91.59
2018-11-05T06:54:37.997Z,93.87
2018-11-05T06:57:08.386Z,93.34
2018-11-05T06:59:38.181Z,92.83
2018-11-05T07:02:25.953Z,92.27
2018-11-05T07:04:56.560Z,92.93
2018-11-05T07:07:46.127Z,92.86
2018-11-05T07:10:16.736Z,92.49
2018-11-05T07:12:46.881Z,92.81
2018-11-05T07:15:42.319Z,93.71
2018-11-05T07:18:12.422Z,91.90
2018-11-05T07:29:55.469Z,90.55
2018-11-05T07:46:10.420Z,90.11
2018-11-05T07:51:42.833Z,90.54
2018-11-05T07:54:12.841Z,90.04
2018-11-05T07:56:42.685Z,90.46
2018-11-05T07:59:14.966Z,90.34
2018-11-05T08:01:47.902Z,93.83
2018-11-05T08:04:20.374Z,94.05
2018-11-05T08:06:54.649Z,95.04
2018-11-05T08:09:24.699Z,95.94
2018-11-05T08:11:54.671Z,96.29
2018-11-05T08:14:24.621Z,96.19
2018-11-05T08:16:54.479Z,95.36
2018-11-05T08:19:24.206Z,94.79
2018-11-05T08:21:58.596Z,94.50
2018-11-05T08:24:28.707Z,95.12
2018-11-05T08:26:58.671Z,94.91
2018-11-05T08:29:45.722Z,96.69
2018-11-05T08:32:15.747Z,94.82
2018-11-05T08:34:45.738Z,94.23
2018-11-05T08:37:16.200Z,95.10
2018-11-05T08:39:46.428Z,94.36
2018-11-05T08:42:16.383Z,95.40
2018-11-05T08:44:46.403Z,94.99
2018-11-05T08:47:16.392Z,94.69
2018-11-05T08:49:48.341Z,93.91
2018-11-05T08:52:18.259Z,95.06
2018-11-05T08:54:48.223Z,94.55
2018-11-05T08:57:18.156Z,96.21
2018-11-05T08:59:48.093Z,96.82
2018-11-05T09:02:18.165Z,97.64
2018-11-05T09:04:48.390Z,96.86
2018-11-05T09:07:18.259Z,97.44
2018-11-05T09:09:48.303Z,96.35
2018-11-05T09:12:18.193Z,95.74
2018-11-05T09:14:48.216Z,97.20
2018-11-05T09:17:18.306Z,96.18
2018-11-05T09:19:48.348Z,95.83
2018-11-05T09:22:18.259Z,96.88
2018-11-05T09:24:48.210Z,95.78
2018-11-05T09:27:18.227Z,95.67
2018-11-05T09:29:48.166Z,95.89
2018-11-05T09:32:18.512Z,95.43
2018-11-05T09:34:48.552Z,95.72
2018-11-05T09:37:18.639Z,95.71
2018-11-05T09:39:48.632Z,95.75
2018-11-05T09:42:18.611Z,94.94
2018-11-05T09:44:48.589Z,94.67
2018-11-05T09:47:18.483Z,95.50
2018-11-05T09:49:48.446Z,95.39
2018-11-05T09:52:18.189Z,95.57
2018-11-05T09:54:48.204Z,96.34
2018-11-05T09:57:17.972Z,96.36
2018-11-05T09:59:47.823Z,95.82
2018-11-05T10:02:17.919Z,95.85
2018-11-05T10:04:48.300Z,94.45
2018-11-05T10:07:18.019Z,94.89
2018-11-05T10:09:47.765Z,95.36
2018-11-05T10:12:17.574Z,95.77
2018-11-05T10:14:47.523Z,96.96
2018-11-05T10:17:17.550Z,95.15
2018-11-05T10:19:47.418Z,95.05
2018-11-05T10:22:17.151Z,94.56
2018-11-05T10:24:47.260Z,95.19
2018-11-05T10:27:16.831Z,94.60
2018-11-05T10:29:46.495Z,94.75
2018-11-05T10:32:16.204Z,94.06
2018-11-05T10:34:46.018Z,94.32
2018-11-05T10:37:15.768Z,94.42
2018-11-05T10:39:45.658Z,93.74
2018-11-05T10:42:15.537Z,95.47
2018-11-05T10:44:45.688Z,94.45
2018-11-05T10:47:15.495Z,93.12
2018-11-05T10:49:45.341Z,93.85
2018-11-05T10:52:15.382Z,93.85
2018-11-05T10:54:45.028Z,93.84
2018-11-05T10:57:14.963Z,94.47
2018-11-05T10:59:44.712Z,93.18
2018-11-05T11:02:19.887Z,94.96
2018-11-05T11:04:49.826Z,92.22
2018-11-05T11:07:20.140Z,93.68
2018-11-05T11:09:49.955Z,93.24
2018-11-05T11:12:19.714Z,92.58
2018-11-05T11:14:49.589Z,93.34
2018-11-05T11:17:19.360Z,93.56
2018-11-05T11:19:49.076Z,93.91
2018-11-05T11:22:19.002Z,94.07
2018-11-05T11:24:48.783Z,92.49
2018-11-05T11:27:18.575Z,91.88
2018-11-05T11:29:48.572Z,91.29
2018-11-05T11:32:18.295Z,92.42
2018-11-05T11:34:48.036Z,93.52
2018-11-05T11:37:17.942Z,93.71
2018-11-05T11:39:47.863Z,93.62
2018-11-05T11:42:17.609Z,94.13
2018-11-05T11:44:47.521Z,92.10
2018-11-05T11:47:17.422Z,90.97
2018-11-05T11:49:47.323Z,90.57
2018-11-05T11:52:17.562Z,91.11
2018-11-05T11:54:47.530Z,91.10
2018-11-05T11:57:17.474Z,90.87
2018-11-05T11:59:47.408Z,90.89
2018-11-05T12:02:18.203Z,91.11
2018-11-05T12:04:48.116Z,90.77
2018-11-05T12:07:18.071Z,90.79
2018-11-05T12:09:48.063Z,89.16
2018-11-05T12:12:17.776Z,89.59
2018-11-05T12:14:47.822Z,90.34
2018-11-05T12:17:17.500Z,90.12
2018-11-05T12:19:47.250Z,89.84
2018-11-05T12:22:17.004Z,89.69
2018-11-05T12:24:46.876Z,87.18
2018-11-05T12:27:16.787Z,87.32
2018-11-05T12:29:46.759Z,87.35
2018-11-05T12:32:17.939Z,87.77
2018-11-05T12:34:51.029Z,87.05
2018-11-05T12:37:22.328Z,86.91
2018-11-05T12:39:52.559Z,87.23
2018-11-05T12:42:22.403Z,85.20
2018-11-05T12:44:52.231Z,84.97
2018-11-05T12:47:22.010Z,85.66
2018-11-05T12:49:51.987Z,87.78
2018-11-05T12:52:21.982Z,87.08
2018-11-05T12:54:52.424Z,87.20
2018-11-05T12:57:22.383Z,86.36
2018-11-05T12:59:52.198Z,85.07
2018-11-05T13:02:25.562Z,85.19
2018-11-05T13:04:56.107Z,85.67
2018-11-05T13:07:26.192Z,85.16
2018-11-05T13:09:56.055Z,84.86
2018-11-05T13:12:26.135Z,83.32
2018-11-05T13:14:56.059Z,83.81
2018-11-05T13:17:25.993Z,83.00
2018-11-05T13:19:55.809Z,83.22
2018-11-05T13:22:25.708Z,83.03
2018-11-05T13:24:55.270Z,83.13
2018-11-05T13:27:26.498Z,83.74
2018-11-05T13:29:57.615Z,83.28
2018-11-05T13:32:28.478Z,84.88
2018-11-05T13:34:58.752Z,84.22
2018-11-05T13:37:29.201Z,83.27
2018-11-05T13:39:59.147Z,83.43
2018-11-05T13:42:28.929Z,83.52
2018-11-05T13:44:58.899Z,82.87
2018-11-05T13:47:29.148Z,84.37
2018-11-05T13:49:58.874Z,83.43
2018-11-05T13:52:28.814Z,82.74
2018-11-05T13:54:58.832Z,83.20
2018-11-05T13:57:28.333Z,82.92
2018-11-05T13:59:58.060Z,82.54
2018-11-05T14:02:27.869Z,82.55
2018-11-05T14:04:57.580Z,83.01
2018-11-05T14:07:27.314Z,82.69
2018-11-05T14:09:57.068Z,82.90
2018-11-05T14:12:26.890Z,83.20
2018-11-05T14:14:56.923Z,83.67
2018-11-05T14:17:26.724Z,83.51
2018-11-05T14:19:56.453Z,84.18
2018-11-05T14:22:26.131Z,83.77
2018-11-05T14:24:55.961Z,84.01
2018-11-05T14:27:25.711Z,84.48
2018-11-05T14:29:55.720Z,84.71
2018-11-05T14:32:25.811Z,84.38
2018-11-05T14:34:56.104Z,85.04
2018-11-05T14:37:25.834Z,84.54
2018-11-05T14:39:55.645Z,85.17
2018-11-05T14:42:25.617Z,85.20
2018-11-05T14:44:55.782Z,85.45
2018-11-05T14:47:25.667Z,85.90
2018-11-05T14:49:55.399Z,86.46
2018-11-05T14:52:25.488Z,86.38
2018-11-05T14:54:55.658Z,86.96
2018-11-05T14:57:25.583Z,86.74
2018-11-05T14:59:55.527Z,87.18
2018-11-05T15:05:09.491Z,87.49
2018-11-05T15:07:40.953Z,87.58
2018-11-05T15:10:22.487Z,87.52
2018-11-05T15:12:52.675Z,87.98
2018-11-05T15:15:23.016Z,88.06
2018-11-05T15:17:52.781Z,88.00
2018-11-05T15:20:23.585Z,88.08
2018-11-05T15:22:53.387Z,88.54
2018-11-05T15:25:23.352Z,88.83
2018-11-05T15:27:53.340Z,88.58
2018-11-05T15:30:24.290Z,88.84
2018-11-05T15:32:55.250Z,88.77
2018-11-05T15:35:28.030Z,88.84
2018-11-05T15:37:57.962Z,89.29
2018-11-05T15:40:27.756Z,89.47
2018-11-05T15:42:57.775Z,89.11
2018-11-05T15:45:27.792Z,89.57
2018-11-05T15:50:54.817Z,89.82
2018-11-05T15:53:26.052Z,89.97
2018-11-05T15:55:55.856Z,89.83
2018-11-05T15:58:25.761Z,90.29
2018-11-05T16:00:55.643Z,90.43
2018-11-05T16:03:25.689Z,90.64
2018-11-05T16:05:55.932Z,90.81
2018-11-05T16:08:27.404Z,91.12
2018-11-05T16:10:58.321Z,90.99
2018-11-05T16:13:28.958Z,90.68
2018-11-05T16:16:05.821Z,90.27
2018-11-05T16:18:37.657Z,90.68
2018-11-05T16:21:08.836Z,90.67
2018-11-05T16:23:46.238Z,91.00
2018-11-05T16:26:18.001Z,90.52
2018-11-05T16:28:48.411Z,90.45
2018-11-05T16:31:18.629Z,90.93
2018-11-05T16:33:49.295Z,91.13
2018-11-05T16:36:19.415Z,91.06
2018-11-05T16:38:50.357Z,91.19
2018-11-05T16:41:20.636Z,91.13
2018-11-05T16:43:52.012Z,91.31
2018-11-05T16:46:22.511Z,91.43
2018-11-05T16:48:52.655Z,91.23
2018-11-05T16:51:28.919Z,91.51
2018-11-05T16:53:59.094Z,91.50
2018-11-05T16:56:30.621Z,91.76
2018-11-05T16:59:02.106Z,91.75
2018-11-05T17:01:32.660Z,92.16
2018-11-05T17:04:02.519Z,92.15
2018-11-05T17:06:38.484Z,91.70
2018-11-05T17:09:13.977Z,92.28
2018-11-05T17:11:45.871Z,92.97
2018-11-05T17:14:16.395Z,93.32
2018-11-05T17:16:46.506Z,93.23
2018-11-05T17:19:16.704Z,92.98
2018-11-05T17:21:46.660Z,93.45
2018-11-05T17:24:17.146Z,93.38
2018-11-05T17:26:47.339Z,93.53
2018-11-05T17:29:17.412Z,93.07
2018-11-05T17:31:47.658Z,92.88
2018-11-05T17:34:17.805Z,93.32
2018-11-05T17:36:48.524Z,93.12
2018-11-05T17:39:18.647Z,93.09
2018-11-05T17:41:48.861Z,92.95
2018-11-05T17:44:18.871Z,92.94
2018-11-05T17:46:49.405Z,93.14
2018-11-05T17:49:19.597Z,93.09
2018-11-05T17:51:49.655Z,92.76
2018-11-05T17:54:20.515Z,92.79
2018-11-05T17:56:50.700Z,92.47
2018-11-05T17:59:20.873Z,92.77
2018-11-05T18:01:50.790Z,92.68
2018-11-05T18:04:21.051Z,92.44
2018-11-05T18:06:51.070Z,93.36
2018-11-05T18:09:21.793Z,93.91
2018-11-05T18:11:52.427Z,93.42
2018-11-05T18:14:23.423Z,93.03
2018-11-05T18:16:53.715Z,93.20
2018-11-05T18:19:23.411Z,93.31
2018-11-05T18:25:04.970Z,92.82
2018-11-05T18:27:34.890Z,92.61
2018-11-05T18:30:05.175Z,92.71
2018-11-05T18:32:34.983Z,92.92
2018-11-05T18:35:04.794Z,92.87
2018-11-05T18:37:34.688Z,92.86
2018-11-05T18:40:05.079Z,93.12
2018-11-05T18:42:34.915Z,92.51
2018-11-05T18:45:05.280Z,93.35
2018-11-05T18:47:35.036Z,93.91
2018-11-05T18:50:06.853Z,93.77
2018-11-05T18:52:37.334Z,93.82
2018-11-05T18:55:09.413Z,94.09
2018-11-05T18:57:39.580Z,93.55
2018-11-05T19:00:18.214Z,93.91
2018-11-05T19:02:48.259Z,93.66
2018-11-05T19:05:18.931Z,93.76
2018-11-05T19:07:49.040Z,93.67
2018-11-05T19:10:18.955Z,93.33
2018-11-05T19:12:49.475Z,92.80
2018-11-05T19:15:19.279Z,93.09
2018-11-05T19:17:49.623Z,94.00
2018-11-05T19:20:19.950Z,93.19
2018-11-05T19:22:50.207Z,93.77
2018-11-05T19:25:19.954Z,93.98
2018-11-05T19:27:49.841Z,93.13
2018-11-05T19:30:23.551Z,93.68
2018-11-05T19:32:53.303Z,93.94
2018-11-05T19:35:23.920Z,93.76
2018-11-05T19:37:54.022Z,93.78
2018-11-05T19:40:24.279Z,93.30
2018-11-05T19:42:54.029Z,93.20
2018-11-05T19:45:24.343Z,94.35
2018-11-05T19:47:54.692Z,94.46
2018-11-05T19:50:25.532Z,94.48
2018-11-05T19:52:56.211Z,94.65
2018-11-05T19:55:27.176Z,93.99
2018-11-05T19:57:56.908Z,93.90
2018-11-05T20:00:42.442Z,93.99
2018-11-05T20:03:12.157Z,93.22
2018-11-05T20:05:43.375Z,94.48
2018-11-05T20:08:13.205Z,94.61
2018-11-05T20:10:43.259Z,94.56
2018-11-05T20:13:13.155Z,94.32
2018-11-05T20:15:43.589Z,94.14
2018-11-05T20:18:14.154Z,93.86
2018-11-05T20:20:44.216Z,93.78
2018-11-05T20:23:15.302Z,93.22
2018-11-05T20:25:54.797Z,93.86
2018-11-05T20:28:40.964Z,93.45
2018-11-05T20:31:11.245Z,94.05
2018-11-05T20:33:41.150Z,93.53
2018-11-05T20:36:11.143Z,93.15
2018-11-05T20:38:43.840Z,93.61
2018-11-05T20:41:14.565Z,93.34
2018-11-05T20:43:44.347Z,93.45
2018-11-05T20:46:14.356Z,93.87
2018-11-05T20:48:45.327Z,94.59
2018-11-05T20:51:15.079Z,93.51
2018-11-05T20:53:45.875Z,93.75
2018-11-05T20:56:15.760Z,93.24
2018-11-05T20:58:45.820Z,93.49
2018-11-05T21:01:15.547Z,93.33
2018-11-05T21:03:46.346Z,93.10
2018-11-05T21:06:16.031Z,94.08
2018-11-05T21:08:57.188Z,94.43
2018-11-05T21:11:27.117Z,94.36
2018-11-05T21:13:59.293Z,95.10
2018-11-05T21:16:30.633Z,95.10
2018-11-05T21:19:00.377Z,95.01
2018-11-05T21:21:30.189Z,94.66
2018-11-05T21:24:16.031Z,94.60
2018-11-05T21:26:45.804Z,94.66
2018-11-05T21:29:32.171Z,94.43
2018-11-05T21:32:02.224Z,94.11
2018-11-05T21:34:32.667Z,93.83
2018-11-05T21:37:16.649Z,93.73
2018-11-05T21:40:10.209Z,93.25
2018-11-05T21:42:40.149Z,93.06
2018-11-05T21:48:09.283Z,94.29
2018-11-05T21:50:39.512Z,94.30
2018-11-05T21:53:09.437Z,95.00
2018-11-05T21:55:39.358Z,95.73
2018-11-05T21:58:10.390Z,95.03
2018-11-05T22:00:40.324Z,95.99
2018-11-05T22:03:22.734Z,95.70
2018-11-05T22:05:52.783Z,96.52
2018-11-05T22:11:54.991Z,94.88
2018-11-05T22:14:25.344Z,94.02
2018-11-05T22:16:55.229Z,94.08
2018-11-05T22:19:25.090Z,94.27
2018-11-05T22:21:54.929Z,94.91
2018-11-05T22:24:24.805Z,94.59
2018-11-05T22:26:54.696Z,94.47
2018-11-05T22:29:25.862Z,94.80
2018-11-05T22:31:55.774Z,94.12
2018-11-05T22:34:25.463Z,94.37
2018-11-05T22:36:55.293Z,94.36
2018-11-05T22:39:25.120Z,94.31
2018-11-05T22:41:54.877Z,94.55
2018-11-05T22:44:24.624Z,94.99
2018-11-05T22:46:54.547Z,94.78
2018-11-05T22:49:24.978Z,94.55
2018-11-05T22:51:55.131Z,94.05
2018-11-05T22:54:25.586Z,94.07
2018-11-05T22:56:55.845Z,95.53
2018-11-05T22:59:27.716Z,95.90
2018-11-05T23:02:03.097Z,95.59
2018-11-05T23:04:32.784Z,95.11
2018-11-05T23:07:03.576Z,94.37
2018-11-05T23:09:33.363Z,94.27
2018-11-05T23:12:03.061Z,94.22
2018-11-05T23:14:32.872Z,94.33
2018-11-05T23:17:02.607Z,94.08
2018-11-05T23:19:32.567Z,95.66
2018-11-05T23:22:02.316Z,95.05
2018-11-05T23:24:32.355Z,94.33
2018-11-05T23:27:02.087Z,95.45
2018-11-05T23:29:32.246Z,95.21
2018-11-05T23:32:02.774Z,95.74
2018-11-05T23:34:32.577Z,96.62
2018-11-05T23:37:02.414Z,96.49
2018-11-05T23:39:32.460Z,96.56
2018-11-05T23:42:02.704Z,95.78
2018-11-05T23:44:32.492Z,95.41
2018-11-05T23:47:02.617Z,95.40
2018-11-05T23:49:32.819Z,95.99
2018-11-05T23:52:03.028Z,95.56
2018-11-05T23:54:33.071Z,95.29
2018-11-05T23:57:03.117Z,95.25
2018-11-05T23:59:32.841Z,96.42
